Time;durP1;ratioP1;P1;durP2;ratioP2;P2;SDS_P1;SDS_P2;PMS_P1;PMS_P2;Temp;Humidity;BMP_temperature;BMP_pressure;BME280_temperature;BME280_humidity;BME280_pressure;Samples;Min_cycle;Max_cycle;Signal;HPM_P1;HPM_P2
2021/05/18 00:02:07;;;;;;;;;;;9.30;93.60;;;;;;5082932;28;19947;-69
2021/05/18 00:04:33;;;;;;;;;;;9.20;94.10;;;;;;5080877;28;19920;-69
2021/05/18 00:06:58;;;;;;;;;;;9.10;94.30;;;;;;5074435;28;20449;-69
2021/05/18 00:12:09;;;;;;;;;;;8.90;94.90;;;;;;5082720;28;19940;-68
2021/05/18 00:14:35;;;;;;;;;;;8.80;94.90;;;;;;5085146;28;19913;-69
2021/05/18 00:17:03;;;;;;;;;;;8.80;94.80;;;;;;5087743;28;20257;-69
2021/05/18 00:19:28;;;;;;;;;;;8.80;95.20;;;;;;5095256;28;19913;-69
2021/05/18 00:21:54;;;;;;;;;;;8.70;95.30;;;;;;5083276;28;20309;-69
2021/05/18 00:24:20;;;;;;;;;;;8.60;95.60;;;;;;5083221;28;20014;-69
2021/05/18 00:26:47;;;;;;;;;;;8.50;95.80;;;;;;5082822;28;19999;-69
2021/05/18 00:29:13;;;;;;;;;;;8.60;95.80;;;;;;5084267;28;20286;-69
2021/05/18 00:31:39;;;;;;;;;;;8.60;95.60;;;;;;5075739;28;20365;-69
2021/05/18 00:34:05;;;;;;;;;;;8.60;95.80;;;;;;5087372;28;19912;-69
2021/05/18 00:36:31;;;;;;;;;;;8.70;95.90;;;;;;5085499;28;20279;-69
2021/05/18 00:38:57;;;;;;;;;;;8.60;95.70;;;;;;5080959;28;20204;-69
2021/05/18 00:41:23;;;;;;;;;;;8.60;95.90;;;;;;5076954;28;19912;-69
2021/05/18 00:43:49;;;;;;;;;;;8.70;95.60;;;;;;5078903;28;20073;-69
2021/05/18 00:46:14;;;;;;;;;;;8.70;95.80;;;;;;5079644;28;19921;-69
2021/05/18 00:48:40;;;;;;;;;;;8.70;95.60;;;;;;5099452;28;19920;-69
2021/05/18 00:51:09;;;;;;;;;;;8.70;95.70;;;;;;5103122;28;19920;-68
2021/05/18 00:53:39;;;;;;;;;;;8.70;95.70;;;;;;5095760;28;20002;-68
2021/05/18 00:56:20;;;;;;;;;;;8.80;95.50;;;;;;5113205;28;20334;-68
2021/05/18 00:58:46;;;;;;;;;;;8.80;95.50;;;;;;5115624;28;19938;-67
2021/05/18 01:01:20;;;;;;;;;;;8.80;95.50;;;;;;5112962;28;19912;-68
2021/05/18 01:03:47;;;;;;;;;;;8.80;95.70;;;;;;5103623;28;19926;-68
2021/05/18 01:06:30;;;;;;;;;;;8.80;95.50;;;;;;5100200;28;19920;-68
2021/05/18 01:08:57;;;;;;;;;;;8.90;95.40;;;;;;5100359;28;20374;-69
2021/05/18 01:11:24;;;;;;;;;;;8.90;95.50;;;;;;5097918;28;20040;-69
2021/05/18 01:13:56;;;;;;;;;;;9.00;95.30;;;;;;5082102;28;19993;-68
2021/05/18 01:16:22;;;;;;;;;;;9.00;95.20;;;;;;5105697;28;20275;-68
2021/05/18 01:18:48;;;;;;;;;;;8.90;95.30;;;;;;5108322;28;19920;-68
2021/05/18 01:21:14;;;;;;;;;;;8.90;95.40;;;;;;5102729;28;19990;-69
2021/05/18 01:23:40;;;;;;;;;;;8.90;95.30;;;;;;5104572;28;19953;-69
2021/05/18 01:26:07;;;;;;;;;;;8.90;95.50;;;;;;5105220;27;19993;-68
2021/05/18 01:28:33;;;;;;;;;;;8.90;95.40;;;;;;5103872;28;19924;-69
2021/05/18 01:31:00;;;;;;;;;;;8.90;95.40;;;;;;5083900;28;19932;-68
2021/05/18 01:33:25;;;;;;;;;;;8.90;95.60;;;;;;5100266;28;20342;-68
2021/05/18 01:35:52;;;;;;;;;;;8.90;95.30;;;;;;5102332;28;19918;-68
2021/05/18 01:38:22;;;;;;;;;;;8.90;95.50;;;;;;5105767;28;19974;-68
2021/05/18 01:43:33;;;;;;;;;;;8.90;95.60;;;;;;5101374;28;19934;-68
2021/05/18 01:45:59;;;;;;;;;;;9.00;95.40;;;;;;5082621;28;19916;-68
2021/05/18 01:48:25;;;;;;;;;;;9.10;95.00;;;;;;5105059;28;19911;-68
2021/05/18 01:50:50;;;;;;;;;;;9.10;95.00;;;;;;5105394;28;19922;-68
2021/05/18 01:53:17;;;;;;;;;;;9.10;95.10;;;;;;5106350;28;19915;-68
2021/05/18 01:58:13;;;;;;;;;;;9.10;94.80;;;;;;5098924;28;19912;-68
2021/05/18 02:00:39;;;;;;;;;;;9.10;94.60;;;;;;5099177;28;19930;-68
2021/05/18 02:03:05;;;;;;;;;;;9.10;94.80;;;;;;5098139;28;20217;-68
2021/05/18 02:05:33;;;;;;;;;;;9.10;95.10;;;;;;5080871;28;19912;-69
2021/05/18 02:07:59;;;;;;;;;;;9.10;94.80;;;;;;5096866;28;20232;-69
2021/05/18 02:10:25;;;;;;;;;;;9.10;94.80;;;;;;5098164;28;21446;-69
2021/05/18 02:12:53;;;;;;;;;;;9.10;94.90;;;;;;5098260;28;19919;-69
2021/05/18 02:17:54;;;;;;;;;;;9.10;94.90;;;;;;5098032;28;19920;-69
2021/05/18 02:20:28;;;;;;;;;;;9.10;94.80;;;;;;5090133;28;19920;-69
2021/05/18 02:25:39;;;;;;;;;;;9.10;94.80;;;;;;5106890;28;20342;-70
2021/05/18 02:28:08;;;;;;;;;;;9.10;94.10;;;;;;5084406;28;19916;-69
2021/05/18 02:30:34;;;;;;;;;;;9.20;94.30;;;;;;5086805;28;19924;-69
2021/05/18 02:33:01;;;;;;;;;;;9.10;94.40;;;;;;5096974;28;19932;-72
2021/05/18 02:35:27;;;;;;;;;;;9.00;94.60;;;;;;5099260;28;19942;-69
2021/05/18 02:37:52;;;;;;;;;;;8.90;94.80;;;;;;5103648;28;19912;-69
2021/05/18 02:40:20;;;;;;;;;;;8.80;95.40;;;;;;5099892;28;20350;-69
2021/05/18 02:42:46;;;;;;;;;;;8.60;95.40;;;;;;5089644;28;19923;-70
2021/05/18 02:45:25;;;;;;;;;;;8.50;95.50;;;;;;5085551;28;19927;-70
2021/05/18 02:50:43;;;;;;;;;;;8.10;95.70;;;;;;5074057;28;19919;-72
2021/05/18 02:53:10;;;;;;;;;;;8.00;95.80;;;;;;5086810;28;20607;-71
2021/05/18 02:58:21;;;;;;;;;;;7.80;96.10;;;;;;5119679;27;20040;-72
2021/05/18 03:00:46;;;;;;;;;;;7.70;96.20;;;;;;5120874;27;20363;-71
2021/05/18 03:03:13;;;;;;;;;;;7.60;96.20;;;;;;5120408;27;20312;-71
2021/05/18 03:05:39;;;;;;;;;;;7.60;96.10;;;;;;5120511;27;19919;-70
2021/05/18 03:08:05;;;;;;;;;;;7.50;96.10;;;;;;5114785;27;19911;-70
2021/05/18 03:10:31;;;;;;;;;;;7.50;96.10;;;;;;5104976;27;19984;-69
2021/05/18 03:12:56;;;;;;;;;;;7.50;96.20;;;;;;5116750;27;19920;-69
2021/05/18 03:15:22;;;;;;;;;;;7.40;96.30;;;;;;5119758;27;20205;-69
2021/05/18 03:17:48;;;;;;;;;;;7.50;96.20;;;;;;5118720;27;19987;-69
2021/05/18 03:20:15;;;;;;;;;;;7.40;96.30;;;;;;5122943;27;19933;-69
2021/05/18 03:22:41;;;;;;;;;;;7.40;96.30;;;;;;5115557;27;19955;-69
2021/05/18 03:25:08;;;;;;;;;;;7.40;96.30;;;;;;5123568;27;19911;-69
2021/05/18 03:27:34;;;;;;;;;;;7.40;96.30;;;;;;5103525;27;19923;-69
2021/05/18 03:30:11;;;;;;;;;;;7.40;96.40;;;;;;5117674;27;19968;-68
2021/05/18 03:35:21;;;;;;;;;;;7.40;96.40;;;;;;5116879;27;19977;-68
2021/05/18 03:37:53;;;;;;;;;;;7.40;96.30;;;;;;5117328;27;19922;-68
2021/05/18 03:40:19;;;;;;;;;;;7.40;96.50;;;;;;5117649;27;19970;-68
2021/05/18 03:42:52;;;;;;;;;;;7.40;96.50;;;;;;5119185;27;20330;-68
2021/05/18 03:45:24;;;;;;;;;;;7.40;96.60;;;;;;5118885;27;20307;-68
2021/05/18 04:02:40;;;;;;;;;;;7.50;96.70;;;;;;5119995;27;19922;-69
2021/05/18 04:04:45;;;;;;;;;;;7.50;96.80;;;;;;5118291;27;19943;-69
2021/05/18 04:12:54;;;;;;;;;;;7.60;96.60;;;;;;5117095;28;19942;-69
2021/05/18 04:18:11;;;;;;;;;;;7.70;97.00;;;;;;5120077;27;19930;-70
2021/05/18 04:26:34;;;;;;;;;;;7.80;97.20;;;;;;5119251;28;20376;-69
2021/05/18 05:08:00;;;;;;;;;;;7.90;97.20;;;;;;5116830;27;19926;-70
2021/05/18 05:15:39;;;;;;;;;;;7.80;97.20;;;;;;5119106;28;19920;-70
2021/05/18 05:18:05;;;;;;;;;;;7.90;96.70;;;;;;5101513;28;19926;-70
2021/05/18 05:20:31;;;;;;;;;;;7.90;96.90;;;;;;5119762;28;19916;-70
2021/05/18 05:22:56;;;;;;;;;;;7.90;97.00;;;;;;5100113;28;19912;-70
2021/05/18 05:25:23;;;;;;;;;;;7.80;97.10;;;;;;5117294;28;19931;-70
2021/05/18 05:27:48;;;;;;;;;;;7.70;97.20;;;;;;5081671;28;19923;-70
2021/05/18 05:30:14;;;;;;;;;;;7.50;98.00;;;;;;5098911;28;19912;-70
2021/05/18 05:32:40;;;;;;;;;;;7.40;96.90;;;;;;5099013;28;20011;-70
2021/05/18 05:35:06;;;;;;;;;;;7.30;96.70;;;;;;5117750;28;20278;-70
2021/05/18 05:37:32;;;;;;;;;;;7.30;96.90;;;;;;5100221;28;20002;-69
2021/05/18 05:39:57;;;;;;;;;;;7.20;97.40;;;;;;5119255;28;19955;-69
2021/05/18 05:42:24;;;;;;;;;;;7.20;97.00;;;;;;5101302;28;19916;-69
2021/05/18 05:44:50;;;;;;;;;;;7.30;96.90;;;;;;5106946;28;19955;-69
2021/05/18 05:47:16;;;;;;;;;;;7.30;97.20;;;;;;5098856;28;19912;-69
2021/05/18 05:49:42;;;;;;;;;;;7.30;97.40;;;;;;5114795;28;19953;-69
2021/05/18 05:52:09;;;;;;;;;;;7.40;97.30;;;;;;5117842;28;20292;-69
2021/05/18 05:54:35;;;;;;;;;;;7.50;97.20;;;;;;5117999;28;19931;-69
2021/05/18 05:57:01;;;;;;;;;;;7.50;96.90;;;;;;5103092;28;19934;-69
2021/05/18 05:59:27;;;;;;;;;;;7.60;97.30;;;;;;5106111;28;19962;-69
2021/05/18 06:01:53;;;;;;;;;;;7.60;96.90;;;;;;5080629;28;19908;-69
2021/05/18 06:04:18;;;;;;;;;;;7.60;96.90;;;;;;5091171;28;20211;-69
2021/05/18 06:06:46;;;;;;;;;;;7.70;97.00;;;;;;5116193;28;19977;-69
2021/05/18 06:09:11;;;;;;;;;;;7.70;97.00;;;;;;5118782;28;19916;-69
2021/05/18 06:48:38;;;;;;;;;;;8.00;97.00;;;;;;5097795;28;19908;-68
2021/05/18 06:51:04;;;;;;;;;;;8.10;97.40;;;;;;5097322;28;19998;-69
2021/05/18 06:53:30;;;;;;;;;;;8.20;97.30;;;;;;5096078;28;20023;-69
2021/05/18 06:55:57;;;;;;;;;;;8.20;97.60;;;;;;5093395;28;20010;-68
2021/05/18 07:00:07;;;;;;;;;;;8.10;97.40;;;;;;5117082;28;20247;-68
2021/05/18 07:01:24;;;;;;;;;;;8.10;97.20;;;;;;5117346;28;20304;-68
2021/05/18 07:03:53;;;;;;;;;;;8.00;97.00;;;;;;5099653;28;19912;-69
2021/05/18 07:09:05;;;;;;;;;;;8.00;97.20;;;;;;5106665;28;19919;-68
2021/05/18 07:11:31;;;;;;;;;;;8.00;97.50;;;;;;5104173;28;19930;-68
2021/05/18 07:13:58;;;;;;;;;;;7.90;97.20;;;;;;5097295;28;20003;-68
2021/05/18 07:16:24;;;;;;;;;;;7.90;97.30;;;;;;5079418;28;20672;-69
2021/05/18 07:18:50;;;;;;;;;;;7.90;97.00;;;;;;5116842;28;19908;-69
2021/05/18 07:21:16;;;;;;;;;;;7.90;97.20;;;;;;5117246;28;19915;-69
2021/05/18 07:23:43;;;;;;;;;;;7.80;97.40;;;;;;5115474;28;19918;-69
2021/05/18 07:26:09;;;;;;;;;;;7.80;97.20;;;;;;5100909;28;19966;-69
2021/05/18 07:28:35;;;;;;;;;;;7.60;97.50;;;;;;5115885;28;20305;-69
2021/05/18 07:31:03;;;;;;;;;;;7.40;97.30;;;;;;5115707;28;19926;-69
2021/05/18 07:33:29;;;;;;;;;;;7.40;97.30;;;;;;5098698;28;19923;-69
2021/05/18 07:35:57;;;;;;;;;;;7.40;97.20;;;;;;5117117;28;19969;-69
2021/05/18 07:38:24;;;;;;;;;;;7.40;97.40;;;;;;5114670;28;20194;-69
2021/05/18 07:40:50;;;;;;;;;;;7.30;97.30;;;;;;5116742;28;20293;-69
2021/05/18 07:43:19;;;;;;;;;;;7.20;97.80;;;;;;5098760;28;19934;-69
2021/05/18 07:45:58;;;;;;;;;;;7.10;97.10;;;;;;5116886;28;19912;-69
2021/05/18 07:59:22;;;;;;;;;;;7.40;97.60;;;;;;5105343;28;19922;-68
2021/05/18 08:07:17;;;;;;;;;;;7.70;97.10;;;;;;5110279;28;19926;-68
2021/05/18 08:09:47;;;;;;;;;;;7.80;96.50;;;;;;5109559;28;19934;-69
2021/05/18 08:12:13;;;;;;;;;;;7.80;97.10;;;;;;5104827;28;19916;-69
2021/05/18 08:14:45;;;;;;;;;;;8.00;97.50;;;;;;5100893;28;19974;-68
2021/05/18 10:22:06;;;;;;;;;;;11.70;92.00;;;;;;5118647;28;19908;-69
2021/05/18 10:24:36;;;;;;;;;;;11.80;91.30;;;;;;5090125;28;19923;-67
2021/05/18 10:37:23;;;;;;;;;;;12.00;88.00;;;;;;5102871;28;19959;-68
2021/05/18 10:40:16;;;;;;;;;;;11.50;89.80;;;;;;5106820;28;19964;-68
2021/05/18 10:43:00;;;;;;;;;;;11.40;91.00;;;;;;5078721;28;19912;-68
2021/05/18 10:45:26;;;;;;;;;;;10.80;93.00;;;;;;5118041;28;20304;-68
2021/05/18 10:47:56;;;;;;;;;;;10.50;94.10;;;;;;5118009;28;19934;-68
2021/05/18 10:50:34;;;;;;;;;;;10.30;93.30;;;;;;5117232;28;19912;-68
2021/05/18 10:53:18;;;;;;;;;;;10.70;92.60;;;;;;5098108;28;19920;-68
2021/05/18 10:56:02;;;;;;;;;;;11.40;89.80;;;;;;5117895;28;20261;-68
2021/05/18 10:58:28;;;;;;;;;;;12.00;87.80;;;;;;5116923;28;19916;-68
2021/05/18 11:00:54;;;;;;;;;;;12.30;88.60;;;;;;5117854;28;19974;-68
2021/05/18 11:03:20;;;;;;;;;;;12.40;86.70;;;;;;5117529;28;19965;-68
2021/05/18 11:05:45;;;;;;;;;;;13.00;85.90;;;;;;5117123;28;19916;-68
2021/05/18 11:08:15;;;;;;;;;;;13.50;83.00;;;;;;5116192;28;20325;-68
2021/05/18 11:10:40;;;;;;;;;;;13.90;81.70;;;;;;5116963;28;19919;-68
2021/05/18 11:13:09;;;;;;;;;;;14.20;81.90;;;;;;5108149;28;19908;-68
2021/05/18 11:15:34;;;;;;;;;;;14.60;78.20;;;;;;5112936;28;19916;-68
2021/05/18 11:18:00;;;;;;;;;;;14.20;78.80;;;;;;5107119;28;19934;-68
2021/05/18 11:23:24;;;;;;;;;;;14.00;80.70;;;;;;5116370;28;19912;-67
2021/05/18 11:25:56;;;;;;;;;;;14.70;79.50;;;;;;5116846;28;19908;-68
2021/05/18 11:28:38;;;;;;;;;;;14.50;74.80;;;;;;5116752;28;19912;-68
2021/05/18 11:31:13;;;;;;;;;;;14.30;76.50;;;;;;5096903;28;19922;-68
2021/05/18 11:33:40;;;;;;;;;;;14.60;78.10;;;;;;5078902;28;19912;-68
2021/05/18 11:36:18;;;;;;;;;;;14.70;77.90;;;;;;5108727;28;19970;-68
2021/05/18 11:38:51;;;;;;;;;;;14.60;78.10;;;;;;5110484;28;20247;-68
2021/05/18 11:41:27;;;;;;;;;;;14.70;76.70;;;;;;5110489;28;19912;-68
2021/05/18 11:43:54;;;;;;;;;;;15.00;76.60;;;;;;5116954;28;20010;-68
2021/05/18 11:46:21;;;;;;;;;;;15.40;74.70;;;;;;5116630;28;20239;-68
2021/05/18 11:49:14;;;;;;;;;;;14.40;75.60;;;;;;5115218;28;19912;-68
2021/05/18 11:51:50;;;;;;;;;;;14.40;77.00;;;;;;5111450;28;19916;-68
2021/05/18 11:54:18;;;;;;;;;;;14.50;77.00;;;;;;5116259;28;20018;-68
2021/05/18 11:56:43;;;;;;;;;;;14.00;78.70;;;;;;5113855;28;19919;-68
2021/05/18 11:59:15;;;;;;;;;;;14.50;78.10;;;;;;5114588;28;19912;-68
2021/05/18 12:01:44;;;;;;;;;;;14.90;75.80;;;;;;5111247;28;20018;-68
2021/05/18 12:04:11;;;;;;;;;;;15.00;76.10;;;;;;5112228;28;19912;-68
2021/05/18 12:06:40;;;;;;;;;;;14.80;74.10;;;;;;5109194;28;20308;-68
2021/05/18 12:09:06;;;;;;;;;;;14.80;74.30;;;;;;5110902;28;19947;-67
2021/05/18 12:11:33;;;;;;;;;;;15.00;72.70;;;;;;5107415;28;19980;-68
2021/05/18 12:13:59;;;;;;;;;;;14.70;73.00;;;;;;5114940;28;19911;-68
2021/05/18 12:16:25;;;;;;;;;;;14.30;74.30;;;;;;5098266;28;20320;-68
2021/05/18 12:18:52;;;;;;;;;;;15.10;74.20;;;;;;5115652;28;19963;-68
2021/05/18 12:21:19;;;;;;;;;;;15.20;73.70;;;;;;5115355;28;20205;-68
2021/05/18 12:24:05;;;;;;;;;;;15.50;72.90;;;;;;5110281;28;19954;-68
2021/05/18 12:26:32;;;;;;;;;;;14.90;72.60;;;;;;5097618;28;19916;-68
2021/05/18 12:29:03;;;;;;;;;;;14.20;74.50;;;;;;5114573;28;19994;-67
2021/05/18 12:31:31;;;;;;;;;;;14.00;76.10;;;;;;5114935;28;19941;-68
2021/05/18 12:33:56;;;;;;;;;;;13.90;78.50;;;;;;5095185;28;19911;-67
2021/05/18 12:36:22;;;;;;;;;;;13.40;80.60;;;;;;5094860;28;19920;-68
2021/05/18 12:39:07;;;;;;;;;;;12.70;82.60;;;;;;5111530;28;19923;-70
2021/05/18 12:41:52;;;;;;;;;;;11.20;88.50;;;;;;5095577;28;19934;-69
2021/05/18 12:44:19;;;;;;;;;;;9.10;92.50;;;;;;5092202;28;19951;-68
2021/05/18 12:46:51;;;;;;;;;;;8.30;94.10;;;;;;5092810;28;19930;-68
2021/05/18 12:49:38;;;;;;;;;;;8.00;94.40;;;;;;5093030;28;19948;-68
2021/05/18 12:52:08;;;;;;;;;;;8.10;95.70;;;;;;5074226;28;20007;-68
2021/05/18 12:54:43;;;;;;;;;;;8.40;95.60;;;;;;5085769;28;19924;-68
2021/05/18 12:57:09;;;;;;;;;;;8.70;96.20;;;;;;5102853;28;19915;-68
2021/05/18 12:59:56;;;;;;;;;;;8.90;95.70;;;;;;5095276;28;20243;-68
2021/05/18 13:02:29;;;;;;;;;;;9.60;96.10;;;;;;5053006;28;19916;-68
2021/05/18 13:05:03;;;;;;;;;;;11.10;96.10;;;;;;5082847;28;19927;-69
2021/05/18 13:07:30;;;;;;;;;;;12.30;96.80;;;;;;5082668;28;19916;-69
2021/05/18 13:10:13;;;;;;;;;;;12.70;91.60;;;;;;5091532;28;19973;-69
2021/05/18 13:12:39;;;;;;;;;;;13.10;88.60;;;;;;5087447;28;20366;-69
2021/05/18 13:15:06;;;;;;;;;;;13.00;90.80;;;;;;5068923;28;19920;-68
2021/05/18 13:17:33;;;;;;;;;;;13.20;86.90;;;;;;5076196;28;19920;-68
2021/05/18 13:20:05;;;;;;;;;;;13.00;86.80;;;;;;5080049;28;19950;-68
2021/05/18 13:22:34;;;;;;;;;;;12.50;84.80;;;;;;5088171;28;20320;-68
2021/05/18 13:27:48;;;;;;;;;;;12.70;83.90;;;;;;5092045;28;19916;-68
2021/05/18 13:30:16;;;;;;;;;;;12.90;87.50;;;;;;5075977;28;19966;-68
2021/05/18 13:32:42;;;;;;;;;;;12.90;83.60;;;;;;5075250;28;19962;-68
2021/05/18 13:35:08;;;;;;;;;;;13.10;87.10;;;;;;5094755;28;19927;-68
2021/05/18 13:37:33;;;;;;;;;;;13.30;82.80;;;;;;5094387;28;19916;-68
2021/05/18 13:39:59;;;;;;;;;;;13.10;86.50;;;;;;5094120;28;19935;-68
2021/05/18 13:42:25;;;;;;;;;;;13.20;81.80;;;;;;5094039;28;20027;-68
2021/05/18 13:44:51;;;;;;;;;;;13.10;83.10;;;;;;5095688;28;19961;-68
2021/05/18 13:47:17;;;;;;;;;;;13.00;81.80;;;;;;5095534;28;19916;-68
2021/05/18 13:49:45;;;;;;;;;;;13.10;80.60;;;;;;5083825;28;19924;-68
2021/05/18 13:52:13;;;;;;;;;;;13.50;80.50;;;;;;5094085;28;19919;-68
2021/05/18 13:54:39;;;;;;;;;;;13.90;82.30;;;;;;5094274;28;19928;-68
2021/05/18 13:57:06;;;;;;;;;;;14.00;81.50;;;;;;5092069;28;19934;-68
2021/05/18 13:59:32;;;;;;;;;;;14.40;77.40;;;;;;5095192;28;19954;-68
2021/05/18 14:01:59;;;;;;;;;;;14.70;77.80;;;;;;5084117;28;19916;-68
2021/05/18 14:04:25;;;;;;;;;;;14.60;75.90;;;;;;5085618;28;20119;-68
2021/05/18 14:07:01;;;;;;;;;;;14.60;75.40;;;;;;5088749;28;19916;-68
2021/05/18 14:09:28;;;;;;;;;;;14.30;76.20;;;;;;5088322;28;19920;-68
2021/05/18 14:11:53;;;;;;;;;;;13.40;77.40;;;;;;5081880;28;19927;-68
2021/05/18 14:14:19;;;;;;;;;;;13.30;77.90;;;;;;5095702;28;19920;-68
2021/05/18 14:16:46;;;;;;;;;;;13.30;79.60;;;;;;5095328;28;19942;-68
2021/05/18 14:19:12;;;;;;;;;;;13.40;78.10;;;;;;5096101;28;20027;-67
2021/05/18 14:21:40;;;;;;;;;;;13.60;78.80;;;;;;5070733;28;19920;-68
2021/05/18 14:24:22;;;;;;;;;;;13.50;77.70;;;;;;5089992;28;19920;-68
2021/05/18 14:26:48;;;;;;;;;;;14.10;76.80;;;;;;5094852;28;20331;-68
2021/05/18 14:29:15;;;;;;;;;;;14.10;76.50;;;;;;5095144;28;19908;-68
2021/05/18 14:31:41;;;;;;;;;;;14.50;77.90;;;;;;5094940;28;19920;-68
2021/05/18 14:34:08;;;;;;;;;;;15.10;76.90;;;;;;5094832;28;19916;-68
2021/05/18 14:36:34;;;;;;;;;;;14.50;73.60;;;;;;5093539;28;19916;-68
2021/05/18 14:39:03;;;;;;;;;;;13.90;74.30;;;;;;5095074;28;19934;-68
2021/05/18 14:44:20;;;;;;;;;;;13.80;76.20;;;;;;5101277;28;20022;-67
2021/05/18 14:55:02;;;;;;;;;;;14.80;74.10;;;;;;5091838;28;20280;-67
2021/05/18 14:57:28;;;;;;;;;;;14.40;74.90;;;;;;5097819;28;19958;-68
2021/05/18 14:59:54;;;;;;;;;;;14.90;75.60;;;;;;5099736;28;19916;-68
2021/05/18 15:02:20;;;;;;;;;;;15.00;75.20;;;;;;5094300;28;20344;-68
2021/05/18 15:04:46;;;;;;;;;;;14.60;74.90;;;;;;5099006;28;20227;-67
2021/05/18 15:07:12;;;;;;;;;;;14.10;76.00;;;;;;5093351;28;19998;-68
2021/05/18 15:09:41;;;;;;;;;;;13.70;78.10;;;;;;5083421;28;19913;-68
2021/05/18 15:12:08;;;;;;;;;;;13.70;79.10;;;;;;5085051;28;19923;-67
2021/05/18 15:14:34;;;;;;;;;;;13.40;78.00;;;;;;5114107;28;19970;-68
2021/05/18 15:17:01;;;;;;;;;;;12.80;80.50;;;;;;5111304;28;20512;-67
2021/05/18 15:19:28;;;;;;;;;;;12.70;82.90;;;;;;5109178;28;19920;-68
2021/05/18 15:21:54;;;;;;;;;;;12.90;82.10;;;;;;5093594;28;19930;-68
2021/05/18 15:24:20;;;;;;;;;;;12.90;82.30;;;;;;5088377;28;19912;-68
2021/05/18 15:26:48;;;;;;;;;;;12.70;79.60;;;;;;5074647;28;19916;-68
2021/05/18 15:29:14;;;;;;;;;;;12.70;78.60;;;;;;5072347;28;19920;-67
2021/05/18 15:31:40;;;;;;;;;;;12.80;78.60;;;;;;5095600;28;19927;-67
2021/05/18 15:34:06;;;;;;;;;;;12.50;79.40;;;;;;5090101;28;19912;-68
2021/05/18 15:36:32;;;;;;;;;;;12.80;81.10;;;;;;5091495;28;19942;-68
2021/05/18 15:38:58;;;;;;;;;;;13.30;76.30;;;;;;5101793;28;19911;-68
2021/05/18 15:41:24;;;;;;;;;;;14.10;75.50;;;;;;5110227;28;20651;-67
2021/05/18 15:43:49;;;;;;;;;;;14.30;75.20;;;;;;5075072;28;19916;-67
2021/05/18 15:46:16;;;;;;;;;;;14.20;75.40;;;;;;5099052;28;20331;-68
2021/05/18 15:48:42;;;;;;;;;;;14.20;74.90;;;;;;5095623;28;19916;-68
2021/05/18 15:51:08;;;;;;;;;;;13.70;76.10;;;;;;5098187;28;20379;-68
2021/05/18 15:53:34;;;;;;;;;;;13.30;77.40;;;;;;5074005;28;20018;-68
2021/05/18 15:56:00;;;;;;;;;;;12.60;78.80;;;;;;5098508;28;20019;-68
2021/05/18 15:58:26;;;;;;;;;;;12.20;81.50;;;;;;5098324;28;19915;-68
2021/05/18 16:00:53;;;;;;;;;;;11.70;82.10;;;;;;5099665;28;19919;-68
2021/05/18 16:03:20;;;;;;;;;;;11.10;82.40;;;;;;5096565;28;19924;-68
2021/05/18 16:05:46;;;;;;;;;;;10.70;84.20;;;;;;5093725;28;19916;-67
2021/05/18 16:10:53;;;;;;;;;;;10.30;87.00;;;;;;5095491;28;20007;-67
2021/05/18 16:13:20;;;;;;;;;;;10.10;89.00;;;;;;5095895;28;19908;-67
2021/05/18 16:15:47;;;;;;;;;;;9.90;89.90;;;;;;5098232;28;19946;-67
2021/05/18 16:18:13;;;;;;;;;;;9.70;90.70;;;;;;5109695;28;20312;-67
2021/05/18 16:20:40;;;;;;;;;;;9.70;90.80;;;;;;5080582;28;19916;-67
2021/05/18 16:23:06;;;;;;;;;;;9.90;90.50;;;;;;5093977;28;19912;-67
2021/05/18 16:25:32;;;;;;;;;;;10.00;90.30;;;;;;5095572;28;19926;-67
2021/05/18 16:27:58;;;;;;;;;;;10.10;88.90;;;;;;5091938;28;20304;-68
2021/05/18 16:30:24;;;;;;;;;;;10.10;89.10;;;;;;5081733;28;19917;-67
2021/05/18 16:32:50;;;;;;;;;;;10.30;88.80;;;;;;5092612;28;19916;-67
2021/05/18 16:35:16;;;;;;;;;;;10.50;87.60;;;;;;5085246;28;20308;-67
2021/05/18 16:37:43;;;;;;;;;;;10.80;86.70;;;;;;5094042;28;19913;-67
2021/05/18 16:40:09;;;;;;;;;;;11.10;85.40;;;;;;5095429;28;19981;-67
2021/05/18 16:42:37;;;;;;;;;;;11.40;84.20;;;;;;5098313;28;20007;-67
2021/05/18 16:45:04;;;;;;;;;;;11.70;83.00;;;;;;5102867;28;19989;-67
2021/05/18 16:47:30;;;;;;;;;;;11.60;81.90;;;;;;5088931;28;20309;-68
2021/05/18 16:49:56;;;;;;;;;;;11.80;81.40;;;;;;5101555;28;19912;-68
2021/05/18 16:52:22;;;;;;;;;;;12.00;80.80;;;;;;5098629;28;19916;-68
2021/05/18 16:54:47;;;;;;;;;;;12.20;80.50;;;;;;5090986;28;19928;-68
2021/05/18 16:57:13;;;;;;;;;;;12.80;79.80;;;;;;5091072;28;20282;-68
2021/05/18 16:59:39;;;;;;;;;;;13.20;78.30;;;;;;5098939;28;19920;-68
2021/05/18 17:02:05;;;;;;;;;;;14.10;77.00;;;;;;5096755;28;19920;-68
2021/05/18 17:04:31;;;;;;;;;;;14.70;75.00;;;;;;5092478;28;19920;-68
2021/05/18 17:07:00;;;;;;;;;;;15.20;71.90;;;;;;5087590;28;20232;-68
2021/05/18 17:09:26;;;;;;;;;;;15.00;71.10;;;;;;5084833;28;19920;-68
2021/05/18 17:11:52;;;;;;;;;;;13.80;72.20;;;;;;5095656;28;19916;-68
2021/05/18 17:14:18;;;;;;;;;;;12.90;75.60;;;;;;5099495;28;19919;-68
2021/05/18 17:16:44;;;;;;;;;;;12.40;78.20;;;;;;5089762;28;19912;-68
2021/05/18 17:19:10;;;;;;;;;;;12.10;79.40;;;;;;5091871;28;19912;-68
2021/05/18 17:21:37;;;;;;;;;;;12.20;80.60;;;;;;5084971;28;19921;-68
2021/05/18 17:24:03;;;;;;;;;;;12.20;80.20;;;;;;5091933;28;19912;-67
2021/05/18 17:26:29;;;;;;;;;;;12.30;79.90;;;;;;5091259;28;19912;-68
2021/05/18 17:28:55;;;;;;;;;;;12.40;78.80;;;;;;5078821;28;19912;-67
2021/05/18 17:31:21;;;;;;;;;;;12.10;79.20;;;;;;5086228;28;19993;-67
2021/05/18 17:33:47;;;;;;;;;;;11.70;80.60;;;;;;5080009;28;19927;-68
2021/05/18 17:36:13;;;;;;;;;;;11.60;81.40;;;;;;5086221;28;19912;-68
2021/05/18 17:38:39;;;;;;;;;;;11.50;82.00;;;;;;5072867;28;20220;-67
2021/05/18 17:41:05;;;;;;;;;;;11.30;82.60;;;;;;5097553;28;20392;-67
2021/05/18 17:43:31;;;;;;;;;;;11.00;82.80;;;;;;5098491;28;19920;-68
2021/05/18 17:45:58;;;;;;;;;;;10.80;83.90;;;;;;5098956;28;19995;-68
2021/05/18 17:48:23;;;;;;;;;;;10.70;84.00;;;;;;5090418;28;19916;-68
2021/05/18 17:50:49;;;;;;;;;;;10.70;83.80;;;;;;5086486;28;19931;-68
2021/05/18 17:53:15;;;;;;;;;;;10.60;84.60;;;;;;5064920;28;19916;-68
2021/05/18 17:55:41;;;;;;;;;;;10.50;84.50;;;;;;5093484;28;19923;-68
2021/05/18 17:58:10;;;;;;;;;;;10.40;84.80;;;;;;5095826;28;20353;-68
2021/05/18 18:00:37;;;;;;;;;;;10.40;86.40;;;;;;5087544;28;19920;-68
2021/05/18 18:03:04;;;;;;;;;;;10.30;87.00;;;;;;5095219;28;19939;-67
2021/05/18 18:05:30;;;;;;;;;;;10.40;87.50;;;;;;5099666;28;19927;-68
2021/05/18 18:07:57;;;;;;;;;;;10.30;87.90;;;;;;5094575;28;19920;-68
2021/05/18 18:10:23;;;;;;;;;;;10.20;88.20;;;;;;5096614;28;19947;-68
2021/05/18 18:12:51;;;;;;;;;;;10.20;87.70;;;;;;5091670;28;19916;-70
2021/05/18 18:15:20;;;;;;;;;;;10.10;87.70;;;;;;5081710;28;19912;-67
2021/05/18 18:17:47;;;;;;;;;;;10.10;88.70;;;;;;5081123;28;19916;-68
2021/05/18 18:20:14;;;;;;;;;;;10.10;89.10;;;;;;5084610;28;20362;-68
2021/05/18 18:22:40;;;;;;;;;;;10.00;88.80;;;;;;5077773;28;19969;-67
2021/05/18 18:25:07;;;;;;;;;;;9.90;89.60;;;;;;5096736;28;19927;-68
2021/05/18 18:27:33;;;;;;;;;;;9.90;89.80;;;;;;5096608;28;19934;-68
2021/05/18 18:29:59;;;;;;;;;;;9.90;89.70;;;;;;5081465;28;20652;-68
2021/05/18 18:32:25;;;;;;;;;;;9.80;89.90;;;;;;5091318;28;19963;-68
2021/05/18 18:34:52;;;;;;;;;;;9.70;90.60;;;;;;5091423;28;20594;-68
2021/05/18 18:37:19;;;;;;;;;;;9.70;90.90;;;;;;5073274;28;20265;-68
2021/05/18 18:39:45;;;;;;;;;;;9.60;91.30;;;;;;5097002;28;19958;-68
2021/05/18 18:42:13;;;;;;;;;;;9.60;91.40;;;;;;5093009;28;19919;-68
2021/05/18 18:44:42;;;;;;;;;;;9.60;91.90;;;;;;5092565;28;19912;-68
2021/05/18 18:47:11;;;;;;;;;;;9.60;92.20;;;;;;5060817;28;19978;-68
2021/05/18 18:49:41;;;;;;;;;;;9.40;92.40;;;;;;5096183;28;19912;-69
2021/05/18 18:52:23;;;;;;;;;;;9.40;92.90;;;;;;5100209;28;19916;-68
2021/05/18 18:54:52;;;;;;;;;;;9.40;93.30;;;;;;5100046;28;19927;-69
2021/05/18 18:57:20;;;;;;;;;;;9.30;93.00;;;;;;5097546;28;20082;-69
2021/05/18 18:59:54;;;;;;;;;;;9.30;93.10;;;;;;5096050;28;20239;-68
2021/05/18 19:02:28;;;;;;;;;;;9.30;93.30;;;;;;5090485;28;19951;-68
2021/05/18 19:04:56;;;;;;;;;;;9.20;93.50;;;;;;5089858;28;19920;-68
2021/05/18 19:10:09;;;;;;;;;;;9.10;93.90;;;;;;5092389;28;19936;-68
2021/05/18 19:12:46;;;;;;;;;;;9.00;94.20;;;;;;5092728;28;19924;-68
2021/05/18 19:15:12;;;;;;;;;;;8.90;94.70;;;;;;5069683;28;19978;-67
2021/05/18 19:17:38;;;;;;;;;;;8.80;94.40;;;;;;5074924;28;19966;-67
2021/05/18 19:20:05;;;;;;;;;;;8.70;94.40;;;;;;5080649;28;19934;-68
2021/05/18 19:22:31;;;;;;;;;;;8.60;94.80;;;;;;5085114;28;19913;-68
2021/05/18 19:24:57;;;;;;;;;;;8.50;94.60;;;;;;5076747;28;19919;-68
2021/05/18 19:27:23;;;;;;;;;;;8.40;94.80;;;;;;5095145;28;20232;-68
2021/05/18 19:29:52;;;;;;;;;;;8.50;94.70;;;;;;5080506;28;19920;-68
2021/05/18 19:32:18;;;;;;;;;;;8.50;94.80;;;;;;5095767;28;19999;-67
2021/05/18 19:34:44;;;;;;;;;;;8.50;95.10;;;;;;5096005;28;20058;-68
2021/05/18 19:42:38;;;;;;;;;;;8.40;95.40;;;;;;5095540;28;19919;-68